< < Back
Terminal Aerodrome Forecast


Current Version              Previous Versions:   1  2  3  4  5  6  7  8  9  

Terminal Aerodrome Forecast

124
FTUS42 KCHS 270500
TAFSAV
TAF
KSAV 270538Z 2706/2806 25006KT P6SM SKC
     FM271400 28016G25KT P6SM SKC
     FM271600 20018G27KT P6SM FEW050
     FM272200 31006KT P6SM SKC=

Latest METAR

797
SAUS80 KWBC 270500
MTRSAV
METAR KSAV 270453Z 25005KT 10SM CLR 08/02 A3016 RMK AO2 SLP213 LAST
AUGMENTED OBSERVATION UNTIL 1100Z T00780017 401670078


USA.gov is the U.S. government's official web portal to all federal, state and local government web resources and services.